Time;durP1;ratioP1;P1;durP2;ratioP2;P2;SDS_P1;SDS_P2;PMS_P1;PMS_P2;Temp;Humidity;BMP_temperature;BMP_pressure;BME280_temperature;BME280_humidity;BME280_pressure;Samples;Min_cycle;Max_cycle;Signal;HPM_P1;HPM_P2
2022/09/02 00:00:59;;;;;;;4.53;1.70;;;;;;;14.99;100.00;164484.44;4972474;28;20569;-70
2022/09/02 00:03:25;;;;;;;2.05;1.33;;;;;;;14.92;100.00;164466.81;4992805;28;20037;-70
2022/09/02 00:05:51;;;;;;;4.25;1.02;;;;;;;14.96;100.00;164476.28;4990023;28;20038;-70
2022/09/02 00:08:16;;;;;;;1.42;1.05;;;;;;;14.90;100.00;164462.78;4992605;28;20529;-67
2022/09/02 00:10:43;;;;;;;4.68;1.45;;;;;;;14.90;100.00;164462.78;4990524;28;20038;-66
2022/09/02 00:13:10;;;;;;;2.58;1.52;;;;;;;14.86;100.00;164451.91;4992016;28;20077;-67
2022/09/02 00:15:35;;;;;;;6.57;1.75;;;;;;;14.85;100.00;164447.88;4990481;28;20046;-60
2022/09/02 00:18:02;;;;;;;11.98;2.45;;;;;;;14.82;100.00;164441.13;4992204;28;20501;-66
2022/09/02 00:20:29;;;;;;;4.03;1.65;;;;;;;14.82;100.00;164441.13;4990013;28;20042;-65
2022/09/02 00:22:54;;;;;;;2.85;0.95;;;;;;;14.80;100.00;164435.69;4992345;28;20036;-65
2022/09/02 00:25:20;;;;;;;3.83;0.90;;;;;;;14.77;100.00;164426.22;4990585;28;20038;-65
2022/09/02 00:27:45;;;;;;;1.50;1.00;;;;;;;14.72;100.00;164414.03;4991642;28;20063;-64
2022/09/02 00:30:11;;;;;;;3.67;1.10;;;;;;;14.68;100.00;164403.22;4990379;28;20046;-64
2022/09/02 00:32:37;;;;;;;1.23;1.10;;;;;;;14.67;100.00;164400.50;4991306;28;20085;-64
2022/09/02 00:35:02;;;;;;;1.33;1.05;;;;;;;14.65;100.00;164395.03;4990160;28;20473;-64
2022/09/02 00:37:28;;;;;;;3.13;1.63;;;;;;;14.65;100.00;164395.03;4991947;28;20118;-64
2022/09/02 00:39:53;;;;;;;1.75;1.27;;;;;;;14.63;100.00;164391.00;4990316;28;20045;-64
2022/09/02 00:42:21;;;;;;;5.35;2.45;;;;;;;14.63;100.00;164389.66;4991634;28;20037;-64
2022/09/02 00:44:47;;;;;;;4.97;0.90;;;;;;;14.62;100.00;164386.94;4989241;28;20104;-64
2022/09/02 00:47:14;;;;;;;2.65;1.10;;;;;;;14.62;100.00;164386.94;4991787;28;20121;-64
2022/09/02 00:49:42;;;;;;;1.67;1.15;;;;;;;14.58;100.00;164378.81;4989703;28;20061;-65
2022/09/02 00:52:18;;;;;;;2.42;0.90;;;;;;;14.57;100.00;164376.09;4991626;28;20482;-65
2022/09/02 00:54:51;;;;;;;6.20;1.33;;;;;;;14.55;100.00;164370.72;4990204;28;20045;-65
2022/09/02 00:57:18;;;;;;;2.80;1.55;;;;;;;14.55;100.00;164370.72;4991235;28;20030;-65
2022/09/02 01:00:08;;;;;;;1.02;0.95;;;;;;;14.57;100.00;164376.09;4989566;28;20042;-65
2022/09/02 01:02:36;;;;;;;5.45;1.20;;;;;;;14.57;100.00;164374.78;4991348;28;20032;-67
2022/09/02 01:05:04;;;;;;;3.67;1.27;;;;;;;14.56;100.00;164373.38;4990121;28;20125;-67
2022/09/02 01:07:33;;;;;;;4.30;1.27;;;;;;;14.58;100.00;164378.81;4991151;28;20034;-67
2022/09/02 01:10:00;;;;;;;2.13;1.60;;;;;;;14.60;100.00;164384.25;4989988;28;20628;-68
2022/09/02 01:12:28;;;;;;;2.88;0.93;;;;;;;14.63;100.00;164389.66;4991243;28;20072;-67
2022/09/02 01:14:53;;;;;;;1.73;1.63;;;;;;;14.65;100.00;164395.03;4989756;28;20494;-66
2022/09/02 01:17:19;;;;;;;1.23;1.02;;;;;;;14.65;100.00;164395.03;4991482;28;20037;-66
2022/09/02 01:19:50;;;;;;;2.08;0.70;;;;;;;14.60;100.00;164384.25;4989152;28;20513;-66
2022/09/02 01:22:22;;;;;;;0.90;0.90;;;;;;;14.65;100.00;164395.03;4991321;28;20033;-66
2022/09/02 01:24:47;;;;;;;1.52;1.10;;;;;;;14.66;100.00;164397.81;4989892;28;20039;-66
2022/09/02 01:27:19;;;;;;;2.03;0.93;;;;;;;14.68;100.00;164403.22;4991373;28;20532;-66
2022/09/02 01:29:49;;;;;;;1.05;0.73;;;;;;;14.66;100.00;164397.81;4989072;28;20050;-66
2022/09/02 01:32:14;;;;;;;2.50;1.05;;;;;;;14.65;100.00;164396.41;4991313;28;20121;-66
2022/09/02 01:34:40;;;;;;;1.55;1.42;;;;;;;14.62;100.00;164388.28;4989320;28;20402;-66
2022/09/02 01:37:06;;;;;;;2.33;1.13;;;;;;;14.67;100.00;164400.50;4991181;28;20510;-66
2022/09/02 01:39:31;;;;;;;1.58;1.27;;;;;;;14.65;100.00;164395.03;4989627;28;20154;-66
2022/09/02 01:41:59;;;;;;;0.82;0.80;;;;;;;14.63;100.00;164391.00;4990479;28;20053;-66
2022/09/02 01:44:26;;;;;;;1.23;1.13;;;;;;;14.62;100.00;164386.94;4990026;28;20511;-66
2022/09/02 01:46:52;;;;;;;1.25;1.17;;;;;;;14.62;100.00;164386.94;4991438;28;20033;-66
2022/09/02 01:49:17;;;;;;;1.17;0.93;;;;;;;14.57;100.00;164376.09;4989022;28;20417;-66
2022/09/02 01:51:42;;;;;;;1.50;0.88;;;;;;;14.58;100.00;164377.47;4990924;28;20022;-66
2022/09/02 01:54:07;;;;;;;2.25;0.90;;;;;;;14.58;100.00;164378.81;4989840;28;20042;-66
2022/09/02 01:56:33;;;;;;;3.97;1.10;;;;;;;14.60;100.00;164382.84;4993473;28;20027;-66
2022/09/02 01:58:58;;;;;;;3.22;0.80;;;;;;;14.57;100.00;164374.78;4993059;28;20034;-66
2022/09/02 02:01:24;;;;;;;0.90;0.90;;;;;;;14.55;100.00;164370.72;4994774;28;20034;-66
2022/09/02 02:03:50;;;;;;;3.40;1.33;;;;;;;14.51;100.00;164359.88;4992755;28;20026;-66
2022/09/02 02:06:16;;;;;;;2.83;2.00;;;;;;;14.52;100.00;164361.25;4994360;28;20370;-67
2022/09/02 02:08:43;;;;;;;2.30;1.60;;;;;;;14.47;100.00;164349.06;4993172;28;20121;-67
2022/09/02 02:11:08;;;;;;;2.95;1.20;;;;;;;14.50;100.00;164357.16;4993950;28;20496;-68
2022/09/02 02:13:35;;;;;;;2.78;1.35;;;;;;;14.46;100.00;164346.34;4994037;28;20053;-68
2022/09/02 02:16:00;;;;;;;4.03;1.08;;;;;;;14.47;100.00;164349.06;4992894;28;20077;-68
2022/09/02 02:18:26;;;;;;;1.73;1.63;;;;;;;14.46;100.00;164346.34;4994373;28;20085;-68
2022/09/02 02:20:52;;;;;;;4.05;1.13;;;;;;;14.47;100.00;164347.69;4992524;28;20046;-67
2022/09/02 02:23:18;;;;;;;5.50;1.95;;;;;;;14.47;100.00;164349.06;4994497;28;20033;-67
2022/09/02 02:25:43;;;;;;;4.25;1.92;;;;;;;14.49;100.00;164353.13;4991820;28;20495;-67
2022/09/02 02:28:09;;;;;;;3.50;1.55;;;;;;;14.49;100.00;164354.44;4994669;28;20030;-67
2022/09/02 02:30:34;;;;;;;1.08;1.08;;;;;;;14.46;100.00;164346.34;4992505;28;20050;-67
2022/09/02 02:33:00;;;;;;;1.48;1.38;;;;;;;14.49;100.00;164354.44;4993748;28;20046;-68
2022/09/02 02:35:25;;;;;;;1.88;1.08;;;;;;;14.52;100.00;164362.59;4992620;28;20038;-68
2022/09/02 02:37:51;;;;;;;1.42;1.08;;;;;;;14.53;100.00;164365.28;4993999;28;20050;-69
2022/09/02 02:40:20;;;;;;;1.00;0.90;;;;;;;14.55;100.00;164369.34;4992036;28;20039;-68
2022/09/02 02:42:46;;;;;;;3.42;1.77;;;;;;;14.59;100.00;164381.53;4993482;28;20385;-68
2022/09/02 02:45:11;;;;;;;2.60;0.73;;;;;;;14.60;100.00;164384.25;4992351;28;20042;-68
2022/09/02 02:47:41;;;;;;;1.98;1.13;;;;;;;14.56;100.00;164373.38;4993316;28;20433;-68
2022/09/02 02:50:09;;;;;;;2.00;1.67;;;;;;;14.63;100.00;164389.66;4992667;28;20449;-69
2022/09/02 02:52:35;;;;;;;1.65;1.35;;;;;;;14.60;100.00;164384.25;4993206;28;20456;-70
2022/09/02 02:55:01;;;;;;;2.50;1.00;;;;;;;14.63;100.00;164389.66;4991796;28;20057;-70
2022/09/02 02:57:26;;;;;;;0.80;0.80;;;;;;;14.64;100.00;164393.72;4993639;28;20030;-69
2022/09/02 02:59:51;;;;;;;4.30;1.33;;;;;;;14.60;100.00;164384.25;4991956;28;20168;-68
2022/09/02 03:02:17;;;;;;;2.95;1.10;;;;;;;14.63;100.00;164389.66;5008406;28;20058;-68
2022/09/02 03:04:42;;;;;;;2.25;1.25;;;;;;;14.64;100.00;164393.72;4991894;28;20034;-68
2022/09/02 03:07:08;;;;;;;4.07;1.25;;;;;;;14.66;100.00;164397.81;4992171;28;20464;-68
2022/09/02 03:09:34;;;;;;;0.95;0.95;;;;;;;14.68;100.00;164403.22;4992168;28;20034;-68
2022/09/02 03:12:00;;;;;;;1.45;1.10;;;;;;;14.66;100.00;164399.19;4993239;28;20045;-68
2022/09/02 03:14:25;;;;;;;1.20;1.00;;;;;;;14.69;100.00;164405.94;4992063;28;20042;-68
2022/09/02 03:16:51;;;;;;;1.33;1.10;;;;;;;14.65;100.00;164395.03;4992540;28;20033;-69
2022/09/02 03:19:16;;;;;;;1.35;1.25;;;;;;;14.68;100.00;164403.22;4991241;28;20149;-69
2022/09/02 03:21:42;;;;;;;3.03;0.90;;;;;;;14.68;100.00;164403.22;4993131;28;20034;-69
2022/09/02 03:24:10;;;;;;;3.90;0.90;;;;;;;14.67;100.00;164400.50;4991499;28;20045;-69
2022/09/02 03:26:36;;;;;;;1.00;0.85;;;;;;;14.69;100.00;164407.28;4992309;28;20157;-69
2022/09/02 03:29:01;;;;;;;3.80;1.05;;;;;;;14.70;100.00;164408.66;4991386;28;20046;-68
2022/09/02 03:31:27;;;;;;;1.85;0.98;;;;;;;14.70;100.00;164408.66;4993208;28;20030;-69
2022/09/02 03:33:53;;;;;;;2.97;1.15;;;;;;;14.66;100.00;164397.81;4991085;28;20433;-69
2022/09/02 03:36:29;;;;;;;1.35;1.25;;;;;;;14.73;100.00;164416.75;4992525;28;20109;-66
2022/09/02 03:38:55;;;;;;;3.22;1.75;;;;;;;14.74;100.00;164419.47;4991482;28;20486;-66
2022/09/02 03:41:21;;;;;;;2.00;0.70;;;;;;;14.73;100.00;164418.13;4992565;28;20057;-67
2022/09/02 03:43:46;;;;;;;2.78;1.27;;;;;;;14.74;100.00;164419.47;4991283;28;20109;-67
2022/09/02 03:46:12;;;;;;;1.55;1.08;;;;;;;14.74;100.00;164419.47;4992640;28;20094;-67
2022/09/02 03:48:38;;;;;;;2.15;1.00;;;;;;;14.74;100.00;164419.47;4990522;28;20393;-66
2022/09/02 03:51:04;;;;;;;2.30;1.10;;;;;;;14.73;100.00;164418.13;4992104;28;20056;-67
2022/09/02 03:53:30;;;;;;;2.15;1.00;;;;;;;14.72;100.00;164415.41;4992565;28;20720;-67
2022/09/02 03:55:55;;;;;;;1.25;1.15;;;;;;;14.69;100.00;164407.28;4990712;28;20125;-67
2022/09/02 03:58:22;;;;;;;0.82;0.80;;;;;;;14.68;100.00;164403.22;4992944;28;20026;-67
2022/09/02 04:00:52;;;;;;;2.72;1.00;;;;;;;14.66;100.00;164399.19;4990887;28;20046;-67
2022/09/02 04:03:18;;;;;;;2.20;0.88;;;;;;;14.69;100.00;164405.94;4992084;28;20044;-67
2022/09/02 04:05:49;;;;;;;1.02;0.90;;;;;;;14.66;100.00;164397.81;4990541;28;20038;-67
2022/09/02 04:08:15;;;;;;;1.40;1.30;;;;;;;14.64;100.00;164392.31;4992857;28;20038;-68
2022/09/02 04:10:40;;;;;;;1.08;1.02;;;;;;;14.64;100.00;164392.31;4990155;28;20097;-66
2022/09/02 04:13:06;;;;;;;3.17;0.77;;;;;;;14.59;100.00;164381.53;4991221;28;20029;-67
2022/09/02 04:15:32;;;;;;;3.28;1.40;;;;;;;14.56;100.00;164373.38;4989882;28;20379;-67
2022/09/02 04:17:57;;;;;;;1.98;1.20;;;;;;;14.51;100.00;164359.88;4991987;28;20029;-67
2022/09/02 04:20:23;;;;;;;5.03;2.40;;;;;;;14.48;100.00;164350.41;4990030;28;20049;-67
2022/09/02 04:22:48;;;;;;;1.25;1.17;;;;;;;14.46;100.00;164344.97;4991681;28;20892;-67
2022/09/02 04:25:13;;;;;;;1.20;1.10;;;;;;;14.41;100.00;164334.19;4990110;28;20074;-67
2022/09/02 04:27:39;;;;;;;3.53;1.33;;;;;;;14.37;100.00;164322.00;4991867;28;20030;-67
2022/09/02 04:30:06;;;;;;;3.25;1.00;;;;;;;14.35;100.00;164316.56;4990409;28;20085;-67
2022/09/02 04:32:32;;;;;;;1.25;1.15;;;;;;;14.35;100.00;164316.56;4991405;28;20034;-67
2022/09/02 04:34:57;;;;;;;2.17;1.08;;;;;;;14.31;100.00;164305.75;4989295;28;20053;-67
2022/09/02 04:37:22;;;;;;;1.05;0.90;;;;;;;14.27;100.00;164296.28;4990758;28;20026;-67
2022/09/02 04:39:48;;;;;;;3.22;1.23;;;;;;;14.23;100.00;164285.44;4989429;28;20430;-68
2022/09/02 04:42:14;;;;;;;5.10;1.58;;;;;;;14.18;100.00;164273.31;4991739;28;20018;-68
2022/09/02 04:44:39;;;;;;;6.82;1.45;;;;;;;14.07;100.00;164244.84;4990224;28;20655;-67
2022/09/02 04:47:05;;;;;;;1.90;1.40;;;;;;;14.12;100.00;164258.41;4991815;28;20081;-68
2022/09/02 04:49:32;;;;;;;2.05;1.10;;;;;;;14.08;100.00;164247.56;4990210;28;20038;-68
2022/09/02 04:51:58;;;;;;;3.63;1.45;;;;;;;14.07;100.00;164244.84;4991965;28;20018;-68
2022/09/02 04:54:23;;;;;;;2.90;1.00;;;;;;;14.06;100.00;164240.81;4990272;28;20041;-66
2022/09/02 04:56:49;;;;;;;1.60;1.50;;;;;;;14.04;100.00;164235.38;4991506;28;20026;-66
2022/09/02 04:59:15;;;;;;;1.83;1.63;;;;;;;14.06;100.00;164240.81;4990458;28;20049;-65
2022/09/02 05:01:40;;;;;;;5.60;1.35;;;;;;;14.05;100.00;164238.09;4991326;28;20026;-63
2022/09/02 05:04:08;;;;;;;2.05;0.98;;;;;;;14.05;100.00;164239.47;4990421;28;20045;-63
2022/09/02 05:06:34;;;;;;;2.67;1.98;;;;;;;14.08;100.00;164246.25;4991351;28;20485;-64
2022/09/02 05:09:01;;;;;;;1.77;1.10;;;;;;;14.09;100.00;164248.94;4989958;28;20042;-63
2022/09/02 05:11:28;;;;;;;2.83;1.23;;;;;;;14.11;100.00;164254.38;4991786;28;20030;-63
2022/09/02 05:13:55;;;;;;;1.75;1.30;;;;;;;14.13;100.00;164259.75;4989867;28;20026;-63
2022/09/02 05:16:28;;;;;;;2.15;1.10;;;;;;;14.16;100.00;164267.88;4991321;28;20022;-64
2022/09/02 05:18:54;;;;;;;3.28;1.02;;;;;;;14.22;100.00;164284.13;4989853;28;20018;-63
2022/09/02 05:21:22;;;;;;;3.90;2.33;;;;;;;14.24;100.00;164289.53;4991732;28;20105;-63
2022/09/02 05:23:47;;;;;;;0.80;0.80;;;;;;;14.28;100.00;164299.00;4989678;28;20018;-63
2022/09/02 05:26:13;;;;;;;0.85;0.82;;;;;;;14.31;100.00;164307.09;4991467;28;20025;-63
2022/09/02 05:28:40;;;;;;;2.33;1.10;;;;;;;14.39;100.00;164328.75;4990153;28;20025;-62
2022/09/02 05:31:12;;;;;;;2.00;1.10;;;;;;;14.44;100.00;164340.94;4993491;28;20046;-63
2022/09/02 05:33:39;;;;;;;1.30;1.00;;;;;;;14.53;100.00;164365.28;4993916;28;20482;-62
2022/09/02 05:36:14;;;;;;;5.70;1.70;;;;;;;14.58;100.00;164378.81;4995517;28;20042;-63
2022/09/02 05:38:40;;;;;;;4.90;1.40;;;;;;;14.67;100.00;164400.50;4993314;28;20433;-62
2022/09/02 05:41:08;;;;;;;1.88;1.13;;;;;;;14.72;100.00;164414.03;4995003;28;20039;-63
2022/09/02 05:43:38;;;;;;;4.32;1.67;;;;;;;14.76;100.00;164424.88;4994917;28;20541;-63
2022/09/02 05:46:05;;;;;;;1.20;1.10;;;;;;;14.83;100.00;164442.44;4993535;28;20133;-63
2022/09/02 05:51:15;;;;;;;8.02;2.25;;;;;;;14.95;100.00;164473.56;4993594;28;20049;-65
2022/09/02 05:53:40;;;;;;;5.10;1.90;;;;;;;14.96;100.00;164476.28;4992972;28;20027;-67
2022/09/02 05:56:05;;;;;;;3.17;1.08;;;;;;;15.05;100.00;164502.00;4995196;28;20030;-67
2022/09/02 05:58:31;;;;;;;1.30;1.20;;;;;;;15.11;100.00;164516.91;4994588;28;20030;-66
2022/09/02 06:00:57;;;;;;;1.75;1.08;;;;;;;15.17;100.00;164533.13;4993065;28;20035;-60
2022/09/02 06:03:22;;;;;;;6.90;1.02;;;;;;;15.20;100.00;164541.28;4995112;28;20026;-59
2022/09/02 06:05:57;;;;;;;3.55;1.38;;;;;;;15.26;100.00;164556.19;4992928;28;20514;-61
2022/09/02 06:08:23;;;;;;;3.55;0.93;;;;;;;15.32;100.00;164572.41;4994296;28;20038;-61
2022/09/02 06:10:49;;;;;;;1.75;1.02;;;;;;;15.40;100.00;164592.69;4992970;28;20034;-61
2022/09/02 06:13:21;;;;;;;3.47;1.38;;;;;;;15.43;100.00;164599.47;4994479;28;20111;-61
2022/09/02 06:15:49;;;;;;;4.30;1.02;;;;;;;15.48;100.00;164614.34;4992697;28;20076;-61
2022/09/02 06:18:15;;;;;;;4.95;1.20;;;;;;;15.54;100.00;164630.59;4994611;28;20026;-61
2022/09/02 06:20:42;;;;;;;2.75;1.60;;;;;;;15.59;100.00;164641.47;4992707;28;20502;-61
2022/09/02 06:23:08;;;;;;;5.68;1.33;;;;;;;15.66;100.00;164660.41;4994436;28;20398;-61
2022/09/02 06:25:42;;;;;;;8.85;1.30;;;;;;;15.73;100.00;164679.38;4992700;28;20042;-61
2022/09/02 06:28:08;;;;;;;6.20;1.55;;;;;;;15.80;100.00;164698.31;4994346;28;20398;-61
2022/09/02 06:30:34;;;;;;;1.80;1.15;;;;;;;15.87;100.00;164715.94;4992282;28;20050;-61
2022/09/02 06:33:02;;;;;;;5.53;1.27;;;;;;;15.98;100.00;164744.38;4994296;28;20022;-61
2022/09/02 06:35:29;;;;;;;;;;;;;;;16.10;100.00;164775.53;4993253;28;20042;-61
2022/09/02 06:37:55;;;;;;;3.10;1.73;;;;;;;16.15;100.00;164790.44;4994078;28;19968;-61
2022/09/02 06:40:20;;;;;;;1.98;1.40;;;;;;;16.25;100.00;164814.81;4992518;28;20039;-62
2022/09/02 06:42:47;;;;;;;2.25;1.40;;;;;;;16.33;100.00;164836.50;4992733;28;20039;-62
2022/09/02 06:45:12;;;;;;;1.98;1.27;;;;;;;16.43;100.00;164862.22;4992332;28;20126;-62
2022/09/02 06:47:37;;;;;;;1.30;1.10;;;;;;;16.53;100.00;164887.94;4993768;28;20030;-62
2022/09/02 06:50:03;;;;;;;4.72;2.03;;;;;;;16.52;100.00;164885.22;4992338;28;20038;-61
2022/09/02 06:52:28;;;;;;;5.20;1.00;;;;;;;16.63;100.00;164915.06;4993476;28;20022;-62
2022/09/02 06:54:54;;;;;;;3.17;1.13;;;;;;;16.69;100.00;164931.31;4992241;28;20038;-62
2022/09/02 06:57:20;;;;;;;1.90;1.55;;;;;;;16.75;100.00;164947.56;4993942;28;20138;-62
2022/09/02 06:59:45;;;;;;;4.15;1.10;;;;;;;16.78;100.00;164955.72;4991745;28;20038;-62
2022/09/02 07:02:11;;;;;;;1.25;1.15;;;;;;;16.86;100.00;164974.69;4993412;28;20030;-62
2022/09/02 07:07:20;;;;;;;2.47;1.23;;;;;;;17.05;100.00;165026.19;4992880;28;20034;-62
2022/09/02 07:09:45;;;;;;;2.92;1.50;;;;;;;17.22;100.00;165069.56;4998985;28;20046;-62
2022/09/02 07:12:10;;;;;;;2.17;1.30;;;;;;;17.25;100.00;165077.66;5013099;28;20018;-62
2022/09/02 07:14:39;;;;;;;2.72;1.00;;;;;;;17.29;100.00;165088.53;5001706;28;20042;-62
2022/09/02 07:17:05;;;;;;;5.22;1.42;;;;;;;17.38;100.00;165112.94;4993513;28;20042;-62
2022/09/02 07:19:30;;;;;;;4.70;1.48;;;;;;;17.37;100.00;165110.22;4991336;28;20073;-62
2022/09/02 07:21:56;;;;;;;1.52;0.85;;;;;;;17.51;100.00;165145.44;4992738;28;20030;-62
2022/09/02 07:24:22;;;;;;;15.65;1.85;;;;;;;17.62;100.00;165175.25;4991805;28;20038;-62
2022/09/02 07:26:48;;;;;;;5.65;2.42;;;;;;;17.76;100.00;165213.19;4992926;28;20026;-62
2022/09/02 07:29:14;;;;;;;1.10;1.00;;;;;;;17.91;100.00;165252.53;4996213;28;20037;-62
2022/09/02 07:31:43;;;;;;;3.10;1.40;;;;;;;18.01;100.00;165278.34;5012688;28;20157;-62
2022/09/02 07:34:09;;;;;;;1.35;0.88;;;;;;;18.04;100.00;165286.50;5011297;28;20096;-62
2022/09/02 07:36:35;;;;;;;4.03;1.15;;;;;;;18.12;100.00;165305.47;5012231;28;20026;-62
2022/09/02 07:39:02;;;;;;;5.18;1.30;;;;;;;18.17;100.00;165320.34;5011366;28;20459;-62
2022/09/02 07:41:27;;;;;;;8.50;2.10;;;;;;;18.39;100.00;165377.34;5012631;28;20048;-62
2022/09/02 07:43:53;;;;;;;2.70;1.20;;;;;;;18.54;100.00;165416.63;5010681;28;20465;-62
2022/09/02 07:46:19;;;;;;;5.72;1.23;;;;;;;18.90;100.00;165510.22;5012654;28;20046;-62
2022/09/02 07:48:44;;;;;;;6.68;1.60;;;;;;;19.72;100.00;165725.97;5010829;28;20026;-62
2022/09/02 07:51:11;;;;;;;1.77;1.00;;;;;;;20.23;100.00;165861.72;5011997;28;20355;-62
2022/09/02 07:53:36;;;;;;;2.30;1.27;;;;;;;20.44;100.00;165916.00;5011931;28;20029;-62
2022/09/02 07:56:03;;;;;;;2.83;1.20;;;;;;;20.39;100.00;165903.84;5010995;28;20057;-62
2022/09/02 07:58:28;;;;;;;5.40;1.23;;;;;;;20.05;100.00;165814.22;5011962;28;20386;-62
2022/09/02 08:00:56;;;;;;;2.65;1.52;;;;;;;19.69;100.00;165717.84;5010459;28;20045;-62
2022/09/02 08:03:24;;;;;;;7.50;1.92;;;;;;;19.53;100.00;165677.13;5012314;28;20111;-62
2022/09/02 08:05:51;;;;;;;5.05;1.33;;;;;;;19.37;100.00;165633.72;5009977;28;20133;-62
2022/09/02 08:08:19;;;;;;;6.18;1.30;;;;;;;19.30;100.00;165617.44;5012417;28;20385;-62
2022/09/02 08:10:46;;;;;;;3.38;2.42;;;;;;;19.25;100.00;165602.50;5010271;28;20413;-62
2022/09/02 08:13:12;;;;;;;3.85;1.65;;;;;;;19.32;100.00;165622.84;5011438;28;20164;-62
2022/09/02 08:15:37;;;;;;;7.95;1.05;;;;;;;19.77;100.00;165740.91;4997477;28;20545;-62
2022/09/02 08:18:04;;;;;;;5.47;1.25;;;;;;;20.35;100.00;165891.59;5010812;28;20030;-59
2022/09/02 08:20:30;;;;;;;5.13;1.33;;;;;;;21.15;100.00;166103.44;5009751;28;20042;-62
2022/09/02 08:22:57;;;;;;;5.50;1.85;;;;;;;22.10;100.00;166353.41;5011399;28;20049;-60
2022/09/02 08:25:22;;;;;;;4.15;1.63;;;;;;;22.82;100.00;166542.34;5010265;28;20038;-60
2022/09/02 08:27:48;;;;;;;9.32;2.05;;;;;;;23.57;95.21;166739.47;5011128;28;20033;-60
2022/09/02 08:30:14;;;;;;;4.90;1.58;;;;;;;24.08;93.12;166875.56;5009683;28;20050;-60
2022/09/02 08:32:40;;;;;;;2.00;1.60;;;;;;;24.43;90.89;166966.63;5004289;28;20032;-60
2022/09/02 08:35:07;;;;;;;2.22;0.93;;;;;;;24.55;86.42;166997.94;4990308;28;20398;-60
2022/09/02 08:37:33;;;;;;;5.03;1.27;;;;;;;24.54;84.88;166995.19;4991320;28;20393;-60
2022/09/02 08:40:03;;;;;;;2.10;1.35;;;;;;;24.08;83.29;166875.56;4990600;28;20046;-60
2022/09/02 08:42:37;;;;;;;5.43;2.33;;;;;;;23.88;84.51;166821.06;4991296;28;20661;-60
2022/09/02 08:45:06;;;;;;;6.10;1.50;;;;;;;23.60;84.70;166747.66;4990195;28;20133;-60
2022/09/02 08:47:34;;;;;;;4.82;1.27;;;;;;;23.40;86.93;166696.00;4991376;28;20474;-60
2022/09/02 08:50:04;;;;;;;6.38;1.38;;;;;;;23.14;84.81;166626.63;4990446;28;20097;-60
2022/09/02 08:52:42;;;;;;;7.38;1.48;;;;;;;23.31;85.58;166671.53;4991392;28;20061;-60
2022/09/02 08:55:17;;;;;;;9.32;1.58;;;;;;;23.42;86.99;166701.41;4990366;28;20041;-60
2022/09/02 08:57:44;;;;;;;3.13;1.23;;;;;;;23.64;86.41;166757.19;4989735;28;20120;-60
2022/09/02 09:00:10;;;;;;;7.03;1.43;;;;;;;23.52;82.57;166727.28;4987438;28;20097;-61
2022/09/02 09:03:16;;;;;;;4.90;1.73;;;;;;;23.56;82.06;166736.81;4988676;28;20029;-61
2022/09/02 09:06:09;;;;;;;2.03;1.20;;;;;;;23.48;82.62;166715.03;4987125;28;20633;-61
2022/09/02 09:08:51;;;;;;;5.70;1.20;;;;;;;23.42;84.01;166700.06;4989790;28;20058;-61
2022/09/02 09:11:32;;;;;;;1.70;1.50;;;;;;;23.77;85.02;166793.91;4969362;28;20061;-61
2022/09/02 09:14:19;;;;;;;7.05;1.85;;;;;;;23.83;82.09;166807.50;4970647;28;20080;-61
2022/09/02 09:16:58;;;;;;;1.85;1.10;;;;;;;23.85;82.08;166812.94;4972126;28;20423;-62
2022/09/02 09:19:36;;;;;;;4.38;1.42;;;;;;;23.84;80.30;166810.22;4971010;28;20039;-60
2022/09/02 09:22:02;;;;;;;;;;;;;;;23.86;81.57;166815.66;4972232;28;20442;-61
2022/09/02 09:24:43;;;;;;;4.55;2.42;;;;;;;23.97;80.84;166845.63;4977361;28;20007;-61
2022/09/02 09:27:12;;;;;;;7.32;1.67;;;;;;;24.30;81.22;166931.28;4991536;28;20033;-61
2022/09/02 09:29:38;;;;;;;11.63;1.70;;;;;;;24.59;80.27;167007.44;4989533;28;20050;-61
2022/09/02 09:32:10;;;;;;;2.08;1.30;;;;;;;24.39;78.25;166957.13;4991451;28;20026;-61
2022/09/02 09:34:51;;;;;;;4.68;2.30;;;;;;;24.11;79.73;166880.97;4989649;28;20117;-61
2022/09/02 09:37:37;;;;;;;8.57;1.60;;;;;;;23.97;78.19;166844.28;4991442;28;20042;-61
2022/09/02 09:40:24;;;;;;;2.45;1.17;;;;;;;24.42;79.63;166962.56;4989275;28;20038;-61
2022/09/02 09:43:04;;;;;;;2.40;1.95;;;;;;;24.82;78.79;167070.09;4991023;28;20042;-61
2022/09/02 09:45:34;;;;;;;4.45;1.98;;;;;;;25.02;76.51;167123.16;4989635;28;20045;-60
2022/09/02 09:48:12;;;;;;;6.60;1.50;;;;;;;25.14;76.43;167153.06;4991385;28;20050;-60
2022/09/02 09:50:38;;;;;;;3.08;1.40;;;;;;;25.06;75.31;167131.34;4989404;28;20031;-61
2022/09/02 09:53:14;;;;;;;10.82;1.63;;;;;;;25.24;76.43;167180.28;4991061;28;20038;-60
2022/09/02 09:55:56;;;;;;;4.78;1.40;;;;;;;25.54;75.38;167259.28;4989760;28;20161;-61
2022/09/02 09:58:26;;;;;;;5.40;1.85;;;;;;;25.63;74.96;167283.78;4991148;28;20550;-61
2022/09/02 10:00:59;;;;;;;3.10;1.55;;;;;;;25.54;72.64;167259.28;4989604;28;20062;-60
2022/09/02 10:03:28;;;;;;;3.67;1.50;;;;;;;25.59;72.71;167272.88;4991459;28;20026;-61
2022/09/02 10:05:56;;;;;;;5.45;1.50;;;;;;;25.56;71.22;167264.72;4989029;28;20043;-61
2022/09/02 10:08:27;;;;;;;8.48;1.48;;;;;;;25.29;70.13;167193.88;4989686;28;20114;-60
2022/09/02 10:11:01;;;;;;;4.78;1.35;;;;;;;25.54;70.90;167257.94;4990371;28;20070;-63
2022/09/02 10:13:35;;;;;;;3.83;1.40;;;;;;;25.60;68.33;167275.59;4989633;28;20034;-61
2022/09/02 10:16:25;;;;;;;3.70;1.90;;;;;;;25.95;67.88;167366.78;4989422;28;20608;-61
2022/09/02 10:19:10;;;;;;;3.63;1.38;;;;;;;25.92;66.51;167360.00;4985469;28;20545;-60
2022/09/02 10:22:22;;;;;;;5.68;1.40;;;;;;;25.86;66.59;167343.66;4992555;28;20034;-60
2022/09/02 10:25:06;;;;;;;3.72;2.08;;;;;;;26.01;66.46;167381.78;4990622;28;20054;-61
2022/09/02 10:27:45;;;;;;;9.35;1.50;;;;;;;26.01;65.79;167381.78;4993024;28;20054;-60
2022/09/02 10:30:23;;;;;;;3.13;1.60;;;;;;;25.95;65.27;167368.13;4992058;28;20482;-61
2022/09/02 10:33:15;;;;;;;3.60;2.03;;;;;;;25.83;64.58;167335.47;4992752;28;20034;-60
2022/09/02 10:36:07;;;;;;;2.95;1.15;;;;;;;25.88;66.78;167349.06;4992222;28;20053;-61
2022/09/02 10:38:40;;;;;;;11.40;1.52;;;;;;;25.91;64.88;167357.25;4993293;28;20477;-60
2022/09/02 10:41:41;;;;;;;2.75;1.58;;;;;;;25.93;64.96;167362.72;4972731;28;20046;-60
2022/09/02 10:44:37;;;;;;;3.05;2.08;;;;;;;26.03;65.33;167387.19;4976716;28;20046;-60
2022/09/02 10:47:09;;;;;;;5.63;1.30;;;;;;;26.13;64.72;167414.47;4993431;28;20069;-60
2022/09/02 10:49:44;;;;;;;7.25;1.33;;;;;;;26.08;61.24;167400.88;4991647;28;20046;-61
2022/09/02 10:52:53;;;;;;;0.98;0.93;;;;;;;26.17;61.77;167425.41;4992996;28;20580;-60
2022/09/02 10:55:41;;;;;;;3.97;1.25;;;;;;;26.49;62.59;167509.75;4991919;28;20121;-61
2022/09/02 10:58:12;;;;;;;4.63;1.30;;;;;;;26.35;59.94;167471.66;4992829;28;20046;-60
2022/09/02 11:00:42;;;;;;;3.92;1.33;;;;;;;26.30;59.95;167459.38;4991890;28;20053;-60
2022/09/02 11:03:20;;;;;;;4.88;1.27;;;;;;;26.48;59.18;167507.03;4993542;28;20572;-61
2022/09/02 11:05:57;;;;;;;1.80;1.20;;;;;;;26.83;60.94;167598.31;4991672;28;20121;-61
2022/09/02 11:08:35;;;;;;;2.80;1.60;;;;;;;27.01;60.71;167645.97;4993556;28;20023;-61
2022/09/02 11:11:06;;;;;;;7.57;1.90;;;;;;;27.11;56.39;167671.84;4991079;28;20126;-60
2022/09/02 11:13:52;;;;;;;2.53;1.63;;;;;;;26.93;55.48;167625.56;4992607;28;20062;-61
2022/09/02 11:16:25;;;;;;;2.20;2.03;;;;;;;27.12;55.78;167674.56;4992206;28;20038;-61
2022/09/02 11:19:14;;;;;;;2.22;1.25;;;;;;;27.26;56.37;167711.34;4990330;28;20022;-61
2022/09/02 11:21:57;;;;;;;1.95;1.23;;;;;;;27.23;54.52;167704.56;4988946;28;20022;-61
2022/09/02 11:24:36;;;;;;;5.68;1.58;;;;;;;27.13;54.45;167678.69;4991148;28;20383;-61
2022/09/02 11:27:09;;;;;;;2.10;1.75;;;;;;;26.74;55.59;167575.13;4992310;28;20031;-61
2022/09/02 11:30:10;;;;;;;5.43;1.35;;;;;;;26.65;55.10;167550.59;4990824;28;20115;-61
2022/09/02 11:33:12;;;;;;;3.00;1.77;;;;;;;26.80;54.41;167591.50;4992453;28;20120;-61
2022/09/02 11:35:38;;;;;;;1.27;1.17;;;;;;;26.71;54.83;167566.94;4991404;28;20042;-61